McKinney, Texas
Current Conditions -  °F | °C
As of 1:53 PM on Thursday 18 Dec 2014 (Local Time) from KTKI Reporting Station
Overcast Overcast  
Wind Chill: 45°   Ceiling: 600
Heat Index: 47°   Visibility: 7mi
Dew Point: 44°   Wind: 5mph
Humidity: 90%   Direction: 40°NE
Pressure: 30.12"   Gusts: NA
Location:  33.2°N, 96.61°W
Report Text: KTKI 181953Z 04004KT 7SM OVC006 08/07 A3012 RMK AO2 SLP210 T00830067
Loading
Personal Weather Stations






























Interactive Weather Map New forecast layout! Learn more

10-Day Weather Forecast

Advertisements
Track Severe Weather on mobile